• Join FlightAware (Why Join?)
  • Login
  • US Flag 
10:30AM EST


 

Airport Tracker/Info


-or-


 

Live Flight TrackerFlight Track Log ✈ TCF3913 ✈ 07-Jul-2013 ✈ KDEN - KCMH

Flight Track Log - Related Links

Times and Time Zones

All times are in EDT time to prevent confusion due to time zone crossing. See the TCF3913 flight status page for this flight to view local times or setup timezone preferences in your user account.

Time Position Orientation Groundspeed Altitude Reporting Facility
EDT Latitude Longitude Course Direction KTS MPH feet Rate Location/Type
10:12PM 39.8000 -104.6167 85° East 191 220 6,800  Level Denver TRACON
10:13PM 39.7500 -104.5667 142° Southeast 249 287 8,200 1,800 Climbing Denver TRACON
10:14PM 39.8667 -104.2000 90° East  Level FlightAware Approximate
10:14PM 39.7167 -104.4833 117° Southeast 296 341 10,600  Level Denver TRACON
10:15PM 39.8667 -104.0440 90° East  Level FlightAware Approximate
10:16PM 39.8667 -103.8880 90° East  Level FlightAware Approximate
10:16PM 39.7231 -104.3269 87° East 305 351 13,700  Level Denver Center
10:17PM 39.8828 -103.7354 72° East  Level FlightAware Approximate
10:17PM 39.6942 -104.2056 107° East 332 382 15,900  Level Denver Center
10:18PM 39.8933 -103.5847 85° East  Level FlightAware Approximate
10:18PM 39.6606 -104.0853 110° East 356 410 17,200  Level Denver Center
10:19PM 39.6231 -103.9558 111° Southeast 382 440 18,900 1,800 Climbing Denver Center
10:20PM 39.5825 -103.8108 110° East 399 459 21,000 1,800 Climbing Denver Center
10:21PM 39.5300 -103.6836 118° Southeast 386 444 22,600 1,440 Climbing Denver Center
10:22PM 39.4761 -103.5489 117° Southeast 414 476 24,000 1,620 Climbing Denver Center
10:23PM 39.4256 -103.4111 115° Southeast 422 486 26,000 1,560 Climbing Denver Center
10:24PM 39.3722 -103.2800 118° Southeast 412 474 27,300 1,200 Climbing Denver Center
10:25PM 39.3317 -103.1431 111° Southeast 416 479 28,500 960 Climbing Denver Center
10:26PM 39.3133 -102.9914 99° East 427 491 29,400 780 Climbing Denver Center
10:27PM 39.2950 -102.8053 97° East 437 503 30,200 600 Climbing Denver Center
10:28PM 39.2806 -102.6406 96° East 451 519 30,700 360 Climbing Denver Center
10:29PM 39.2892 -102.4853 86° East 454 522 31,000 120 Climbing Denver Center
10:30PM 39.3181 -102.3294 76° East 463 533 31,000 60 Level Denver Center
10:31PM 39.3494 -102.1431 78° East 473 544 31,200 480 Climbing Denver Center
10:32PM 39.3767 -101.9839 77° East 474 545 32,000 840 Climbing Denver Center
10:33PM 39.4072 -101.7983 78° East 474 545 33,000 720 Climbing Denver Center
10:34PM 39.4344 -101.6400 77° East 473 544 33,500 600 Climbing Denver Center
10:35PM 39.4650 -101.4517 78° East 477 549 34,300 720 Climbing Denver Center
10:36PM 39.4908 -101.2936 78° East 472 543 35,000 300 Climbing Denver Center
10:37PM 39.5175 -101.1311 78° East 480 552 35,000  Level Denver Center
10:38PM 39.5481 -100.9372 78° East 491 565 35,000  Level Denver Center
10:39PM 39.5750 -100.7694 78° East 497 572 35,000  Level Denver Center
10:40PM 39.6058 -100.5736 78° East 499 574 35,000  Level Denver Center
10:41PM 39.6311 -100.4056 79° East 497 572 35,000  Level Denver Center
10:42PM 39.6614 -100.2089 79° East 499 574 35,000  Level Denver Center
10:43PM 39.6869 -100.0411 79° East 497 572 35,000  Level Denver Center
10:44PM 39.7122 -99.8725 79° East 496 571 35,000  Level Denver Center
10:45PM 39.7386 -99.6981 79° East 493 567 35,000  Level Denver Center
10:46PM 39.7639 -99.5219 79° East 497 572 35,000  Level Denver Center
10:47PM 39.7947 -99.3142 79° East 490 564 35,000  Level Denver Center
10:49PM 39.8194 -99.1394 80° East 492 566 35,000  Level Denver Center
10:50PM 39.8442 -98.9636 80° East 495 570 35,000  Level Denver Center
10:51PM 39.8686 -98.7908 80° East 492 566 35,000  Level Minneapolis Center
10:52PM 39.8919 -98.6164 80° East 491 565 35,000  Level Minneapolis Center
10:53PM 39.9214 -98.4075 80° East 491 565 35,000  Level Minneapolis Center
10:54PM 39.9453 -98.2308 80° East 494 568 35,000  Level Minneapolis Center
10:55PM 39.9686 -98.0542 80° East 496 571 35,000  Level Minneapolis Center
10:56PM 39.9922 -97.8775 80° East 497 572 35,000  Level Minneapolis Center
10:57PM 40.0153 -97.7011 80° East 497 572 35,000  Level Minneapolis Center
10:58PM 40.0383 -97.5239 80° East 497 572 35,000  Level Minneapolis Center
10:59PM 40.0600 -97.3489 81° East 492 566 35,000  Level Minneapolis Center
11:00PM 40.0853 -97.1481 81° East 491 565 35,000  Level Minneapolis Center
11:01PM 40.1083 -96.9731 80° East 490 564 35,000  Level Minneapolis Center
11:02PM 40.1283 -96.7978 81° East 490 564 35,000  Level Minneapolis Center
11:03PM 40.1494 -96.6242 81° East 487 560 35,000  Level Minneapolis Center
11:04PM 40.1703 -96.4514 81° East 484 557 35,000  Level Minneapolis Center
11:05PM 40.1903 -96.2781 81° East 485 558 35,000  Level Minneapolis Center
11:06PM 40.1989 -96.0667 87° East 488 562 35,000  Level Minneapolis Center
11:07PM 40.1981 -95.8894 90° East 489 563 35,000  Level Minneapolis Center
11:08PM 40.1983 -95.7103 90° East 493 567 35,000  Level Minneapolis Center
11:09PM 40.1969 -95.5358 91° East 487 560 35,000  Level Minneapolis Center
11:10PM 40.1944 -95.3589 91° East 489 563 35,000  Level Minneapolis Center
11:11PM 40.1931 -95.1825 91° East 487 560 35,000  Level Minneapolis Center
11:12PM 40.1908 -95.0719 91° East 484 557 35,000  Level Kansas City Center
11:13PM 40.1886 -94.9022 91° East 484 557 35,000  Level Kansas City Center
11:14PM 40.1872 -94.7372 91° East 477 549 35,000  Level Kansas City Center
11:15PM 40.1847 -94.5425 91° East 478 550 35,000  Level Kansas City Center
11:16PM 40.1814 -94.3739 91° East 482 555 35,000  Level Kansas City Center
11:17PM 40.1775 -94.2058 92° East 483 556 35,000  Level Kansas City Center
11:18PM 40.1708 -94.0136 93° East 482 555 35,000  Level Kansas City Center
11:19PM 40.1678 -93.8417 91° East 481 554 35,000  Level Kansas City Center
11:20PM 40.1633 -93.6703 92° East 478 550 35,000  Level Kansas City Center
11:21PM 40.1603 -93.4986 91° East 478 550 35,000  Level Kansas City Center
11:22PM 40.1558 -93.3275 92° East 476 548 35,000  Level Kansas City Center
11:23PM 40.1506 -93.1589 92° East 471 542 35,000  Level Kansas City Center
11:24PM 40.1450 -92.9650 92° East 469 540 35,000  Level Kansas City Center
11:25PM 40.1403 -92.8025 92° East 466 536 35,000  Level Kansas City Center
11:26PM 40.1331 -92.6106 93° East 472 543 35,000  Level Kansas City Center
11:27PM 40.1203 -92.4464 96° East 473 544 35,000  Level Kansas City Center
11:28PM 40.1072 -92.2919 96° East 472 543 35,000  Level Kansas City Center
11:29PM 40.0925 -92.1253 97° East 469 540 35,000  Level Kansas City Center
11:30PM 40.0719 -91.9222 97° East 474 545 35,000  Level Kansas City Center
11:31PM 40.0558 -91.7533 97° East 474 545 35,000  Level Kansas City Center
11:32PM 40.0403 -91.5842 97° East 476 548 35,000  Level Kansas City Center
11:33PM 40.0247 -91.4147 97° East 474 545 35,000  Level Kansas City Center
11:34PM 40.0075 -91.2467 98° East 474 545 35,000  Level Kansas City Center
11:35PM 39.9906 -91.0778 97° East 474 545 35,000  Level Kansas City Center
11:36PM 39.9706 -90.8864 98° East 474 545 35,000  Level Kansas City Center
11:37PM 39.9525 -90.7169 98° East 473 544 35,000  Level Kansas City Center
11:38PM 39.9356 -90.5472 97° East 476 548 35,000  Level Kansas City Center
11:39PM 39.9164 -90.3781 98° East 476 548 35,000  Level Kansas City Center
11:40PM 39.8986 -90.2092 98° East 474 545 35,000  Level Kansas City Center
11:41PM 39.8794 -90.0394 98° East 476 548 35,000  Level Kansas City Center
11:42PM 39.8603 -89.8708 98° East 475 547 35,000  Level Kansas City Center
11:43PM 39.8425 -89.7031 98° East 473 544 35,000  Level Kansas City Center
11:44PM 39.8397 -89.5331 91° East 471 542 35,000  Level Kansas City Center
11:45PM 39.8403 -89.3647 90° East 470 541 35,000  Level Kansas City Center
11:46PM 39.8411 -89.1633 90° East 466 536 35,000  Level Kansas City Center
11:47PM 39.8417 -88.9972 90° East 464 534 35,000  Level Kansas City Center
11:48PM 39.8425 -88.8314 90° East 461 531 35,000  Level Kansas City Center
11:49PM 39.8411 -88.6653 91° East 461 531 35,000  Level Kansas City Center
11:50PM 39.8417 -88.5014 90° East 457 526 35,000  Level Kansas City Center
11:51PM 39.8411 -88.3356 90° East 458 527 35,000  Level Kansas City Center
11:52PM 39.8411 -88.1692 90° East 456 525 35,000  Level Kansas City Center
11:53PM 39.8397 -88.0042 91° East 455 524 35,000  Level Kansas City Center
11:54PM 39.8364 -87.8344 91° East 457 526 35,000  Level Indianapolis Center
11:55PM 39.8353 -87.6694 90° East 458 527 35,000  Level Indianapolis Center
11:56PM 39.8328 -87.5067 91° East 453 521 35,000  Level Indianapolis Center
11:57PM 39.8311 -87.3428 91° East 454 522 35,000  Level Indianapolis Center
11:58PM 39.8292 -87.1783 91° East 456 525 35,000  Level Indianapolis Center
11:59PM 39.8278 -87.0136 91° East 457 526 35,000  Level Indianapolis Center
12:00AM 39.8244 -86.8472 91° East 461 531 35,000  Level Indianapolis Center
12:01AM 39.8208 -86.6833 92° East 456 525 35,000  Level Indianapolis Center
12:02AM 39.8183 -86.5197 91° East 454 522 35,000  Level Indianapolis Center
12:03AM 39.8192 -86.3486 90° East 459 528 35,000 -600 Level Indianapolis Center
12:04AM 39.8531 -86.1892 74° East 450 518 33,900 -1,020 Descending Indianapolis Center
12:05AM 39.8861 -86.0319 75° East 447 514 33,000 -480 Descending Indianapolis Center
12:06AM 39.9181 -85.8764 75° East 446 513 33,000  Level Indianapolis Center
12:07AM 39.9511 -85.7206 74° East 447 514 33,000  Level Indianapolis Center
12:08AM 39.9681 -85.5578 82° East 452 520 33,000  Level Indianapolis Center
12:09AM 39.9703 -85.3881 89° East 465 535 33,000 -540 Level Indianapolis Center
12:10AM 39.9728 -85.2203 89° East 466 536 32,000 -1,020 Descending Indianapolis Center
12:11AM 39.9772 -85.0508 88° East 468 539 31,000 -1,140 Descending Indianapolis Center
12:12AM 39.9792 -84.8678 89° East 457 526 29,800 -1,560 Descending Indianapolis Center
12:13AM 39.9831 -84.7022 88° East 453 521 27,900 -2,100 Descending Indianapolis Center
12:14AM 39.9858 -84.5414 89° East 441 507 25,600 -2,340 Descending Indianapolis Center
12:16AM 39.9886 -84.3850 89° East 428 493 23,300 -2,280 Descending Indianapolis Center
12:17AM 39.9900 -84.2339 89° East 414 476 21,100 -2,160 Descending Indianapolis Center
12:18AM 39.9911 -84.0869 89° East 405 466 19,000 -2,100 Descending Indianapolis Center
12:19AM 39.9928 -83.9433 89° East 393 452 16,900 -1,920 Descending Indianapolis Center
12:20AM 39.9936 -83.8264 89° East 384 442 15,200 -2,040 Descending Indianapolis Center
12:20AM 39.9942 -83.7203 90° East 368 423 13,600 -2,100 Descending Indianapolis Center
12:21AM 39.9903 -83.5911 92° East 355 409 11,800 -1,500 Descending Indianapolis Center
12:22AM 39.9794 -83.4689 97° East 324 373 10,600 -2,040 Descending Indianapolis Center
12:23AM 39.9692 -83.3608 97° East 298 343 7,800 -2,340 Descending Indianapolis Center
12:24AM 39.9725 -83.2631 87° East 248 285 6,000 -1,740 Descending Indianapolis Center
12:25AM 39.9847 -83.1803 79° East 227 261 4,300 -1,440 Descending Indianapolis Center
12:26AM 39.9983 -83.1033 77° East 218 251 3,100 -840 Descending Indianapolis Center
12:27AM 40.0078 -83.0283 81° East 199 229 2,600 -720 Descending Indianapolis Center
12:28AM 40.0050 -82.9678 93° East 160 184 1,700 -840 Descending Indianapolis Center
12:29AM 40.0036 -82.9156 92° East 130 150 1,000 -720 Descending Indianapolis Center
12:32AM 39.9980 -82.8920 90° East  Level Estimated